sensor_id;sensor_type;location;lat;lon;timestamp;P1;durP1;ratioP1;P2;durP2;ratioP2
51883;SDS011;37915;53.254;6.598;2022-08-25T00:01:13;6.93;;;5.40;;
51883;SDS011;37915;53.254;6.598;2022-08-25T00:04:00;8.57;;;5.45;;
51883;SDS011;37915;53.254;6.598;2022-08-25T00:06:27;7.38;;;5.57;;
51883;SDS011;37915;53.254;6.598;2022-08-25T00:08:53;8.80;;;5.47;;
51883;SDS011;37915;53.254;6.598;2022-08-25T00:11:23;7.53;;;5.53;;
51883;SDS011;37915;53.254;6.598;2022-08-25T00:13:56;7.95;;;5.63;;
51883;SDS011;37915;53.254;6.598;2022-08-25T00:16:24;9.90;;;5.40;;
51883;SDS011;37915;53.254;6.598;2022-08-25T00:18:51;6.97;;;5.50;;
51883;SDS011;37915;53.254;6.598;2022-08-25T00:21:19;7.32;;;5.25;;
51883;SDS011;37915;53.254;6.598;2022-08-25T00:23:45;10.85;;;5.55;;
51883;SDS011;37915;53.254;6.598;2022-08-25T00:26:12;7.43;;;4.93;;
51883;SDS011;37915;53.254;6.598;2022-08-25T00:28:40;8.90;;;5.60;;
51883;SDS011;37915;53.254;6.598;2022-08-25T00:31:06;6.40;;;5.22;;
51883;SDS011;37915;53.254;6.598;2022-08-25T00:33:36;6.72;;;5.20;;
51883;SDS011;37915;53.254;6.598;2022-08-25T00:36:02;7.78;;;5.30;;
51883;SDS011;37915;53.254;6.598;2022-08-25T00:38:29;8.43;;;4.95;;
51883;SDS011;37915;53.254;6.598;2022-08-25T00:40:55;6.50;;;4.95;;
51883;SDS011;37915;53.254;6.598;2022-08-25T00:46:02;7.85;;;4.68;;
51883;SDS011;37915;53.254;6.598;2022-08-25T00:48:28;6.38;;;4.97;;
51883;SDS011;37915;53.254;6.598;2022-08-25T00:50:53;6.88;;;4.88;;
51883;SDS011;37915;53.254;6.598;2022-08-25T00:53:20;7.88;;;5.47;;
51883;SDS011;37915;53.254;6.598;2022-08-25T00:55:46;7.50;;;4.50;;
51883;SDS011;37915;53.254;6.598;2022-08-25T00:58:17;6.40;;;4.90;;
51883;SDS011;37915;53.254;6.598;2022-08-25T01:00:48;6.85;;;4.82;;
51883;SDS011;37915;53.254;6.598;2022-08-25T01:03:16;8.13;;;4.85;;
51883;SDS011;37915;53.254;6.598;2022-08-25T01:05:43;7.93;;;4.78;;
51883;SDS011;37915;53.254;6.598;2022-08-25T01:08:11;7.15;;;5.20;;
51883;SDS011;37915;53.254;6.598;2022-08-25T01:10:38;10.20;;;4.57;;
51883;SDS011;37915;53.254;6.598;2022-08-25T01:13:13;9.02;;;4.30;;
51883;SDS011;37915;53.254;6.598;2022-08-25T01:15:48;7.50;;;4.88;;
51883;SDS011;37915;53.254;6.598;2022-08-25T01:18:18;6.45;;;4.47;;
51883;SDS011;37915;53.254;6.598;2022-08-25T01:20:48;7.95;;;4.93;;
51883;SDS011;37915;53.254;6.598;2022-08-25T01:23:18;8.73;;;4.60;;
51883;SDS011;37915;53.254;6.598;2022-08-25T01:25:47;7.03;;;4.95;;
51883;SDS011;37915;53.254;6.598;2022-08-25T01:28:17;6.00;;;4.32;;
51883;SDS011;37915;53.254;6.598;2022-08-25T01:30:44;11.05;;;4.70;;
51883;SDS011;37915;53.254;6.598;2022-08-25T01:33:10;8.32;;;4.63;;
51883;SDS011;37915;53.254;6.598;2022-08-25T01:35:36;5.45;;;4.43;;
51883;SDS011;37915;53.254;6.598;2022-08-25T01:38:03;7.72;;;4.43;;
51883;SDS011;37915;53.254;6.598;2022-08-25T01:40:30;5.57;;;4.22;;
51883;SDS011;37915;53.254;6.598;2022-08-25T01:43:01;10.88;;;4.30;;
51883;SDS011;37915;53.254;6.598;2022-08-25T01:45:30;8.70;;;4.85;;
51883;SDS011;37915;53.254;6.598;2022-08-25T01:47:57;8.65;;;4.35;;
51883;SDS011;37915;53.254;6.598;2022-08-25T01:50:23;8.15;;;4.40;;
51883;SDS011;37915;53.254;6.598;2022-08-25T01:55:28;6.57;;;3.78;;
51883;SDS011;37915;53.254;6.598;2022-08-25T01:57:55;7.03;;;4.55;;
51883;SDS011;37915;53.254;6.598;2022-08-25T02:00:22;8.95;;;5.10;;
51883;SDS011;37915;53.254;6.598;2022-08-25T02:02:48;9.02;;;4.40;;
51883;SDS011;37915;53.254;6.598;2022-08-25T02:05:14;7.35;;;4.20;;
51883;SDS011;37915;53.254;6.598;2022-08-25T02:07:43;6.68;;;3.90;;
51883;SDS011;37915;53.254;6.598;2022-08-25T02:10:10;8.50;;;4.72;;
51883;SDS011;37915;53.254;6.598;2022-08-25T02:12:37;5.63;;;4.15;;
51883;SDS011;37915;53.254;6.598;2022-08-25T02:15:06;6.22;;;4.70;;
51883;SDS011;37915;53.254;6.598;2022-08-25T02:17:33;6.75;;;4.07;;
51883;SDS011;37915;53.254;6.598;2022-08-25T02:20:01;7.25;;;5.00;;
51883;SDS011;37915;53.254;6.598;2022-08-25T02:22:31;5.80;;;4.00;;
51883;SDS011;37915;53.254;6.598;2022-08-25T02:24:56;7.03;;;4.13;;
51883;SDS011;37915;53.254;6.598;2022-08-25T02:27:23;6.60;;;4.15;;
51883;SDS011;37915;53.254;6.598;2022-08-25T02:29:49;7.35;;;4.60;;
51883;SDS011;37915;53.254;6.598;2022-08-25T02:32:14;6.75;;;4.57;;
51883;SDS011;37915;53.254;6.598;2022-08-25T02:34:40;6.90;;;4.30;;
51883;SDS011;37915;53.254;6.598;2022-08-25T02:37:06;6.13;;;4.30;;
51883;SDS011;37915;53.254;6.598;2022-08-25T02:39:32;7.78;;;4.65;;
51883;SDS011;37915;53.254;6.598;2022-08-25T02:41:58;7.25;;;4.13;;
51883;SDS011;37915;53.254;6.598;2022-08-25T02:44:24;6.65;;;4.05;;
51883;SDS011;37915;53.254;6.598;2022-08-25T02:46:49;10.05;;;4.22;;
51883;SDS011;37915;53.254;6.598;2022-08-25T02:49:15;7.88;;;4.15;;
51883;SDS011;37915;53.254;6.598;2022-08-25T02:51:42;7.95;;;4.15;;
51883;SDS011;37915;53.254;6.598;2022-08-25T02:54:08;18.45;;;4.40;;
51883;SDS011;37915;53.254;6.598;2022-08-25T02:56:34;10.43;;;4.50;;
51883;SDS011;37915;53.254;6.598;2022-08-25T02:59:00;6.63;;;4.05;;
51883;SDS011;37915;53.254;6.598;2022-08-25T03:01:26;8.00;;;4.40;;
51883;SDS011;37915;53.254;6.598;2022-08-25T03:03:53;7.22;;;4.30;;
51883;SDS011;37915;53.254;6.598;2022-08-25T03:06:19;8.10;;;4.38;;
51883;SDS011;37915;53.254;6.598;2022-08-25T03:08:48;5.45;;;3.80;;
51883;SDS011;37915;53.254;6.598;2022-08-25T03:11:13;7.57;;;4.07;;
51883;SDS011;37915;53.254;6.598;2022-08-25T03:13:39;7.80;;;4.55;;
51883;SDS011;37915;53.254;6.598;2022-08-25T03:16:06;5.80;;;4.22;;
51883;SDS011;37915;53.254;6.598;2022-08-25T03:18:32;7.40;;;4.30;;
51883;SDS011;37915;53.254;6.598;2022-08-25T03:20:58;6.70;;;4.57;;
51883;SDS011;37915;53.254;6.598;2022-08-25T03:23:25;7.60;;;4.32;;
51883;SDS011;37915;53.254;6.598;2022-08-25T03:25:52;6.32;;;3.97;;
51883;SDS011;37915;53.254;6.598;2022-08-25T03:28:37;7.03;;;4.07;;
51883;SDS011;37915;53.254;6.598;2022-08-25T03:31:03;8.57;;;4.10;;
51883;SDS011;37915;53.254;6.598;2022-08-25T03:33:29;7.18;;;4.22;;
51883;SDS011;37915;53.254;6.598;2022-08-25T03:35:55;5.95;;;4.32;;
51883;SDS011;37915;53.254;6.598;2022-08-25T03:38:22;8.57;;;4.75;;
51883;SDS011;37915;53.254;6.598;2022-08-25T03:40:49;8.63;;;5.05;;
51883;SDS011;37915;53.254;6.598;2022-08-25T03:43:15;5.40;;;4.35;;
51883;SDS011;37915;53.254;6.598;2022-08-25T03:45:42;5.75;;;4.40;;
51883;SDS011;37915;53.254;6.598;2022-08-25T03:48:09;8.05;;;4.35;;
51883;SDS011;37915;53.254;6.598;2022-08-25T03:50:35;6.55;;;4.38;;
51883;SDS011;37915;53.254;6.598;2022-08-25T03:53:01;6.30;;;4.70;;
51883;SDS011;37915;53.254;6.598;2022-08-25T03:55:27;7.30;;;4.35;;
51883;SDS011;37915;53.254;6.598;2022-08-25T03:57:53;6.22;;;4.38;;
51883;SDS011;37915;53.254;6.598;2022-08-25T04:00:20;7.95;;;3.90;;
51883;SDS011;37915;53.254;6.598;2022-08-25T04:02:47;8.57;;;4.40;;
51883;SDS011;37915;53.254;6.598;2022-08-25T04:05:13;6.55;;;4.13;;
51883;SDS011;37915;53.254;6.598;2022-08-25T04:07:39;9.18;;;4.75;;
51883;SDS011;37915;53.254;6.598;2022-08-25T04:10:06;6.53;;;4.20;;
51883;SDS011;37915;53.254;6.598;2022-08-25T04:12:34;10.57;;;4.32;;
51883;SDS011;37915;53.254;6.598;2022-08-25T04:15:01;10.02;;;5.05;;
51883;SDS011;37915;53.254;6.598;2022-08-25T04:17:28;7.28;;;4.68;;
51883;SDS011;37915;53.254;6.598;2022-08-25T04:19:54;5.82;;;4.28;;
51883;SDS011;37915;53.254;6.598;2022-08-25T04:22:21;8.50;;;4.80;;
51883;SDS011;37915;53.254;6.598;2022-08-25T04:24:47;7.38;;;4.60;;
51883;SDS011;37915;53.254;6.598;2022-08-25T04:27:13;8.23;;;4.47;;
51883;SDS011;37915;53.254;6.598;2022-08-25T04:29:39;6.15;;;4.45;;
51883;SDS011;37915;53.254;6.598;2022-08-25T04:32:05;7.55;;;4.75;;
51883;SDS011;37915;53.254;6.598;2022-08-25T04:34:30;7.75;;;4.95;;
51883;SDS011;37915;53.254;6.598;2022-08-25T04:36:58;9.20;;;4.70;;
51883;SDS011;37915;53.254;6.598;2022-08-25T04:39:25;8.95;;;5.30;;
51883;SDS011;37915;53.254;6.598;2022-08-25T04:41:51;9.85;;;5.35;;
51883;SDS011;37915;53.254;6.598;2022-08-25T04:44:17;8.25;;;4.55;;
51883;SDS011;37915;53.254;6.598;2022-08-25T04:46:43;8.40;;;5.40;;
51883;SDS011;37915;53.254;6.598;2022-08-25T04:49:08;9.70;;;4.72;;
51883;SDS011;37915;53.254;6.598;2022-08-25T04:51:38;8.00;;;5.05;;
51883;SDS011;37915;53.254;6.598;2022-08-25T04:54:07;8.23;;;5.53;;
51883;SDS011;37915;53.254;6.598;2022-08-25T04:56:35;8.55;;;5.07;;
51883;SDS011;37915;53.254;6.598;2022-08-25T04:59:08;9.52;;;5.55;;
51883;SDS011;37915;53.254;6.598;2022-08-25T05:01:36;7.32;;;5.32;;
51883;SDS011;37915;53.254;6.598;2022-08-25T05:04:04;9.40;;;5.72;;
51883;SDS011;37915;53.254;6.598;2022-08-25T05:06:31;11.95;;;5.55;;
51883;SDS011;37915;53.254;6.598;2022-08-25T05:08:57;8.77;;;5.20;;
51883;SDS011;37915;53.254;6.598;2022-08-25T05:11:24;8.45;;;5.60;;
51883;SDS011;37915;53.254;6.598;2022-08-25T05:13:50;8.82;;;5.40;;
51883;SDS011;37915;53.254;6.598;2022-08-25T05:16:17;7.70;;;5.05;;
51883;SDS011;37915;53.254;6.598;2022-08-25T05:18:44;8.88;;;4.95;;
51883;SDS011;37915;53.254;6.598;2022-08-25T05:21:11;8.43;;;5.30;;
51883;SDS011;37915;53.254;6.598;2022-08-25T05:23:40;7.63;;;5.35;;
51883;SDS011;37915;53.254;6.598;2022-08-25T05:26:07;6.78;;;4.90;;
51883;SDS011;37915;53.254;6.598;2022-08-25T05:28:36;9.00;;;5.80;;
51883;SDS011;37915;53.254;6.598;2022-08-25T05:31:04;7.68;;;5.38;;
51883;SDS011;37915;53.254;6.598;2022-08-25T05:33:30;7.80;;;4.93;;
51883;SDS011;37915;53.254;6.598;2022-08-25T05:35:56;8.93;;;5.25;;
51883;SDS011;37915;53.254;6.598;2022-08-25T05:38:22;7.88;;;5.40;;
51883;SDS011;37915;53.254;6.598;2022-08-25T05:40:51;10.32;;;5.18;;
51883;SDS011;37915;53.254;6.598;2022-08-25T05:43:41;8.52;;;5.63;;
51883;SDS011;37915;53.254;6.598;2022-08-25T05:46:07;7.53;;;5.53;;
51883;SDS011;37915;53.254;6.598;2022-08-25T05:48:34;12.80;;;8.70;;
51883;SDS011;37915;53.254;6.598;2022-08-25T05:51:01;10.77;;;7.80;;
51883;SDS011;37915;53.254;6.598;2022-08-25T05:53:29;11.13;;;7.72;;
51883;SDS011;37915;53.254;6.598;2022-08-25T05:55:56;12.90;;;8.60;;
51883;SDS011;37915;53.254;6.598;2022-08-25T05:58:23;11.32;;;8.02;;
51883;SDS011;37915;53.254;6.598;2022-08-25T06:00:52;11.93;;;8.00;;
51883;SDS011;37915;53.254;6.598;2022-08-25T06:03:18;10.27;;;6.60;;
51883;SDS011;37915;53.254;6.598;2022-08-25T06:05:44;8.45;;;5.72;;
51883;SDS011;37915;53.254;6.598;2022-08-25T06:08:10;11.93;;;6.22;;
51883;SDS011;37915;53.254;6.598;2022-08-25T06:10:36;10.27;;;5.63;;
51883;SDS011;37915;53.254;6.598;2022-08-25T06:13:02;9.73;;;6.15;;
51883;SDS011;37915;53.254;6.598;2022-08-25T06:15:28;7.75;;;5.78;;
51883;SDS011;37915;53.254;6.598;2022-08-25T06:17:55;11.27;;;5.43;;
51883;SDS011;37915;53.254;6.598;2022-08-25T06:20:24;8.02;;;5.70;;
51883;SDS011;37915;53.254;6.598;2022-08-25T06:22:52;9.10;;;6.07;;
51883;SDS011;37915;53.254;6.598;2022-08-25T06:25:19;9.38;;;6.57;;
51883;SDS011;37915;53.254;6.598;2022-08-25T06:27:46;18.42;;;8.93;;
51883;SDS011;37915;53.254;6.598;2022-08-25T06:30:13;8.30;;;6.72;;
51883;SDS011;37915;53.254;6.598;2022-08-25T06:32:41;8.15;;;6.03;;
51883;SDS011;37915;53.254;6.598;2022-08-25T06:35:09;7.57;;;5.47;;
51883;SDS011;37915;53.254;6.598;2022-08-25T06:37:37;8.73;;;6.03;;
51883;SDS011;37915;53.254;6.598;2022-08-25T06:40:06;9.20;;;5.60;;
51883;SDS011;37915;53.254;6.598;2022-08-25T06:42:32;8.50;;;5.72;;
51883;SDS011;37915;53.254;6.598;2022-08-25T06:44:58;8.50;;;5.47;;
51883;SDS011;37915;53.254;6.598;2022-08-25T06:47:25;7.57;;;5.68;;
51883;SDS011;37915;53.254;6.598;2022-08-25T06:49:51;9.93;;;5.47;;
51883;SDS011;37915;53.254;6.598;2022-08-25T06:52:17;7.70;;;6.25;;
51883;SDS011;37915;53.254;6.598;2022-08-25T06:54:43;9.18;;;5.90;;
51883;SDS011;37915;53.254;6.598;2022-08-25T06:57:09;11.13;;;5.68;;
51883;SDS011;37915;53.254;6.598;2022-08-25T06:59:35;10.68;;;6.22;;
51883;SDS011;37915;53.254;6.598;2022-08-25T07:02:02;11.00;;;6.80;;
51883;SDS011;37915;53.254;6.598;2022-08-25T07:04:28;9.07;;;5.57;;
51883;SDS011;37915;53.254;6.598;2022-08-25T07:06:54;10.35;;;5.60;;
51883;SDS011;37915;53.254;6.598;2022-08-25T07:09:19;9.30;;;5.53;;
51883;SDS011;37915;53.254;6.598;2022-08-25T07:11:45;11.13;;;5.82;;
51883;SDS011;37915;53.254;6.598;2022-08-25T07:14:12;9.45;;;6.07;;
51883;SDS011;37915;53.254;6.598;2022-08-25T07:16:40;9.15;;;5.95;;
51883;SDS011;37915;53.254;6.598;2022-08-25T07:19:07;9.55;;;5.57;;
51883;SDS011;37915;53.254;6.598;2022-08-25T07:21:34;8.20;;;5.72;;
51883;SDS011;37915;53.254;6.598;2022-08-25T07:24:12;10.70;;;6.03;;
51883;SDS011;37915;53.254;6.598;2022-08-25T07:26:39;10.48;;;5.75;;
51883;SDS011;37915;53.254;6.598;2022-08-25T07:29:12;8.45;;;5.07;;
51883;SDS011;37915;53.254;6.598;2022-08-25T07:31:40;9.55;;;5.03;;
51883;SDS011;37915;53.254;6.598;2022-08-25T07:34:07;8.70;;;5.28;;
51883;SDS011;37915;53.254;6.598;2022-08-25T07:36:52;8.50;;;5.38;;
51883;SDS011;37915;53.254;6.598;2022-08-25T07:39:18;11.77;;;5.25;;
51883;SDS011;37915;53.254;6.598;2022-08-25T07:41:44;7.85;;;4.80;;
51883;SDS011;37915;53.254;6.598;2022-08-25T07:44:10;9.15;;;4.53;;
51883;SDS011;37915;53.254;6.598;2022-08-25T07:46:37;8.70;;;4.60;;
51883;SDS011;37915;53.254;6.598;2022-08-25T07:49:03;8.77;;;4.38;;
51883;SDS011;37915;53.254;6.598;2022-08-25T07:51:30;8.15;;;4.00;;
51883;SDS011;37915;53.254;6.598;2022-08-25T07:53:55;7.47;;;4.55;;
51883;SDS011;37915;53.254;6.598;2022-08-25T07:56:21;6.57;;;4.25;;
51883;SDS011;37915;53.254;6.598;2022-08-25T07:58:47;8.93;;;4.88;;
51883;SDS011;37915;53.254;6.598;2022-08-25T08:01:13;6.72;;;3.80;;
51883;SDS011;37915;53.254;6.598;2022-08-25T08:03:40;6.28;;;4.25;;
51883;SDS011;37915;53.254;6.598;2022-08-25T08:06:07;9.25;;;4.03;;
51883;SDS011;37915;53.254;6.598;2022-08-25T08:08:36;6.43;;;4.45;;
51883;SDS011;37915;53.254;6.598;2022-08-25T08:11:02;11.32;;;4.22;;
51883;SDS011;37915;53.254;6.598;2022-08-25T08:13:29;7.15;;;4.20;;
51883;SDS011;37915;53.254;6.598;2022-08-25T08:15:54;8.05;;;4.30;;
51883;SDS011;37915;53.254;6.598;2022-08-25T08:18:20;6.47;;;4.63;;
51883;SDS011;37915;53.254;6.598;2022-08-25T08:20:47;6.40;;;4.78;;
51883;SDS011;37915;53.254;6.598;2022-08-25T08:23:13;7.57;;;4.28;;
51883;SDS011;37915;53.254;6.598;2022-08-25T08:25:40;5.35;;;3.95;;
51883;SDS011;37915;53.254;6.598;2022-08-25T08:28:05;6.78;;;4.05;;
51883;SDS011;37915;53.254;6.598;2022-08-25T08:30:31;7.20;;;3.90;;
51883;SDS011;37915;53.254;6.598;2022-08-25T08:32:57;6.10;;;4.15;;
51883;SDS011;37915;53.254;6.598;2022-08-25T08:35:23;7.45;;;4.07;;
51883;SDS011;37915;53.254;6.598;2022-08-25T08:37:48;6.93;;;4.00;;
51883;SDS011;37915;53.254;6.598;2022-08-25T08:40:15;7.25;;;4.22;;
51883;SDS011;37915;53.254;6.598;2022-08-25T08:45:32;7.05;;;3.40;;
51883;SDS011;37915;53.254;6.598;2022-08-25T08:48:30;7.63;;;3.92;;
51883;SDS011;37915;53.254;6.598;2022-08-25T08:53:50;5.28;;;3.50;;
51883;SDS011;37915;53.254;6.598;2022-08-25T08:56:30;7.55;;;3.88;;
51883;SDS011;37915;53.254;6.598;2022-08-25T08:59:09;8.15;;;3.78;;
51883;SDS011;37915;53.254;6.598;2022-08-25T09:01:50;7.38;;;4.50;;
51883;SDS011;37915;53.254;6.598;2022-08-25T09:10:25;7.38;;;3.30;;
51883;SDS011;37915;53.254;6.598;2022-08-25T09:13:18;6.22;;;3.45;;
51883;SDS011;37915;53.254;6.598;2022-08-25T09:15:58;7.15;;;3.67;;
51883;SDS011;37915;53.254;6.598;2022-08-25T09:19:06;6.40;;;3.25;;
51883;SDS011;37915;53.254;6.598;2022-08-25T09:32:26;7.25;;;2.90;;
51883;SDS011;37915;53.254;6.598;2022-08-25T09:34:54;7.22;;;2.72;;
51883;SDS011;37915;53.254;6.598;2022-08-25T09:37:20;9.35;;;3.42;;
51883;SDS011;37915;53.254;6.598;2022-08-25T09:39:47;6.90;;;2.88;;
51883;SDS011;37915;53.254;6.598;2022-08-25T09:42:13;5.47;;;2.83;;
51883;SDS011;37915;53.254;6.598;2022-08-25T09:44:40;5.78;;;3.13;;
51883;SDS011;37915;53.254;6.598;2022-08-25T09:49:43;7.47;;;3.50;;
51883;SDS011;37915;53.254;6.598;2022-08-25T09:57:33;6.18;;;3.28;;
51883;SDS011;37915;53.254;6.598;2022-08-25T10:00:23;6.95;;;3.03;;
51883;SDS011;37915;53.254;6.598;2022-08-25T10:03:06;4.80;;;2.77;;
51883;SDS011;37915;53.254;6.598;2022-08-25T10:08:25;6.22;;;2.78;;
51883;SDS011;37915;53.254;6.598;2022-08-25T10:13:31;7.03;;;2.90;;
51883;SDS011;37915;53.254;6.598;2022-08-25T10:16:11;4.57;;;2.63;;
51883;SDS011;37915;53.254;6.598;2022-08-25T10:19:03;6.35;;;2.63;;
51883;SDS011;37915;53.254;6.598;2022-08-25T10:21:32;4.35;;;2.33;;
51883;SDS011;37915;53.254;6.598;2022-08-25T10:24:00;6.43;;;2.47;;
51883;SDS011;37915;53.254;6.598;2022-08-25T10:31:43;5.18;;;2.65;;
51883;SDS011;37915;53.254;6.598;2022-08-25T10:34:34;5.50;;;2.30;;
51883;SDS011;37915;53.254;6.598;2022-08-25T10:39:42;6.10;;;2.30;;
51883;SDS011;37915;53.254;6.598;2022-08-25T10:42:21;4.45;;;2.42;;
51883;SDS011;37915;53.254;6.598;2022-08-25T10:53:33;4.68;;;2.20;;
51883;SDS011;37915;53.254;6.598;2022-08-25T10:56:20;3.83;;;2.08;;
51883;SDS011;37915;53.254;6.598;2022-08-25T11:07:48;4.82;;;2.83;;
51883;SDS011;37915;53.254;6.598;2022-08-25T11:10:30;8.13;;;2.58;;
51883;SDS011;37915;53.254;6.598;2022-08-25T11:13:05;4.35;;;2.65;;
51883;SDS011;37915;53.254;6.598;2022-08-25T11:15:40;5.80;;;3.00;;
51883;SDS011;37915;53.254;6.598;2022-08-25T11:18:18;4.97;;;2.28;;
51883;SDS011;37915;53.254;6.598;2022-08-25T11:20:51;8.13;;;2.30;;
51883;SDS011;37915;53.254;6.598;2022-08-25T11:24:09;4.60;;;2.20;;
51883;SDS011;37915;53.254;6.598;2022-08-25T11:26:27;6.20;;;2.42;;
51883;SDS011;37915;53.254;6.598;2022-08-25T11:29:08;4.53;;;2.45;;
51883;SDS011;37915;53.254;6.598;2022-08-25T11:31:39;4.38;;;2.65;;
51883;SDS011;37915;53.254;6.598;2022-08-25T11:34:09;4.22;;;2.60;;
51883;SDS011;37915;53.254;6.598;2022-08-25T11:36:38;5.22;;;2.63;;
51883;SDS011;37915;53.254;6.598;2022-08-25T11:42:50;6.45;;;2.72;;
51883;SDS011;37915;53.254;6.598;2022-08-25T11:48:38;5.70;;;2.55;;
51883;SDS011;37915;53.254;6.598;2022-08-25T11:51:29;6.32;;;2.80;;
51883;SDS011;37915;53.254;6.598;2022-08-25T11:54:14;4.85;;;2.72;;
51883;SDS011;37915;53.254;6.598;2022-08-25T12:05:08;6.03;;;2.85;;
51883;SDS011;37915;53.254;6.598;2022-08-25T12:08:03;6.18;;;2.50;;
51883;SDS011;37915;53.254;6.598;2022-08-25T12:10:53;6.18;;;2.47;;
51883;SDS011;37915;53.254;6.598;2022-08-25T12:21:47;6.18;;;2.90;;
51883;SDS011;37915;53.254;6.598;2022-08-25T12:24:14;5.10;;;2.45;;
51883;SDS011;37915;53.254;6.598;2022-08-25T12:27:00;4.43;;;2.53;;
51883;SDS011;37915;53.254;6.598;2022-08-25T12:29:41;6.18;;;2.80;;
51883;SDS011;37915;53.254;6.598;2022-08-25T12:32:38;6.20;;;2.20;;
51883;SDS011;37915;53.254;6.598;2022-08-25T12:40:26;4.78;;;2.33;;
51883;SDS011;37915;53.254;6.598;2022-08-25T12:43:27;7.07;;;2.90;;
51883;SDS011;37915;53.254;6.598;2022-08-25T12:46:30;5.32;;;2.75;;
51883;SDS011;37915;53.254;6.598;2022-08-25T12:49:04;5.28;;;2.88;;
51883;SDS011;37915;53.254;6.598;2022-08-25T12:56:37;6.32;;;2.90;;
51883;SDS011;37915;53.254;6.598;2022-08-25T13:04:49;4.35;;;2.50;;
51883;SDS011;37915;53.254;6.598;2022-08-25T13:10:21;6.00;;;2.75;;
51883;SDS011;37915;53.254;6.598;2022-08-25T13:13:05;3.53;;;2.13;;
51883;SDS011;37915;53.254;6.598;2022-08-25T13:15:45;4.20;;;2.42;;
51883;SDS011;37915;53.254;6.598;2022-08-25T13:18:26;4.05;;;2.40;;
51883;SDS011;37915;53.254;6.598;2022-08-25T13:21:16;7.43;;;2.65;;
51883;SDS011;37915;53.254;6.598;2022-08-25T13:23:43;5.25;;;2.15;;
51883;SDS011;37915;53.254;6.598;2022-08-25T13:26:15;4.22;;;2.72;;
51883;SDS011;37915;53.254;6.598;2022-08-25T13:28:53;5.45;;;2.25;;
51883;SDS011;37915;53.254;6.598;2022-08-25T13:34:38;8.00;;;2.53;;
51883;SDS011;37915;53.254;6.598;2022-08-25T13:37:18;4.95;;;2.10;;
51883;SDS011;37915;53.254;6.598;2022-08-25T13:40:11;5.20;;;2.60;;
51883;SDS011;37915;53.254;6.598;2022-08-25T13:42:51;6.35;;;2.53;;
51883;SDS011;37915;53.254;6.598;2022-08-25T13:45:20;3.85;;;2.50;;
51883;SDS011;37915;53.254;6.598;2022-08-25T13:47:52;6.32;;;2.15;;
51883;SDS011;37915;53.254;6.598;2022-08-25T13:55:23;5.35;;;2.38;;
51883;SDS011;37915;53.254;6.598;2022-08-25T13:57:58;7.75;;;2.15;;
51883;SDS011;37915;53.254;6.598;2022-08-25T14:00:27;4.43;;;2.50;;
51883;SDS011;37915;53.254;6.598;2022-08-25T14:02:59;4.00;;;2.45;;
51883;SDS011;37915;53.254;6.598;2022-08-25T14:05:32;6.97;;;3.03;;
51883;SDS011;37915;53.254;6.598;2022-08-25T14:08:06;4.28;;;2.30;;
51883;SDS011;37915;53.254;6.598;2022-08-25T14:10:48;4.32;;;2.78;;
51883;SDS011;37915;53.254;6.598;2022-08-25T14:13:38;4.10;;;2.35;;
51883;SDS011;37915;53.254;6.598;2022-08-25T14:16:08;12.93;;;2.92;;
51883;SDS011;37915;53.254;6.598;2022-08-25T14:18:52;4.53;;;2.00;;
51883;SDS011;37915;53.254;6.598;2022-08-25T14:21:24;20.30;;;2.88;;
51883;SDS011;37915;53.254;6.598;2022-08-25T14:23:53;4.57;;;2.10;;
51883;SDS011;37915;53.254;6.598;2022-08-25T14:26:20;3.20;;;2.00;;
51883;SDS011;37915;53.254;6.598;2022-08-25T14:28:46;4.63;;;2.20;;
51883;SDS011;37915;53.254;6.598;2022-08-25T14:31:30;4.78;;;2.47;;
51883;SDS011;37915;53.254;6.598;2022-08-25T14:34:00;3.80;;;2.35;;
51883;SDS011;37915;53.254;6.598;2022-08-25T14:36:32;3.28;;;1.85;;
51883;SDS011;37915;53.254;6.598;2022-08-25T14:38:59;6.13;;;2.60;;
51883;SDS011;37915;53.254;6.598;2022-08-25T14:41:30;5.00;;;2.00;;
51883;SDS011;37915;53.254;6.598;2022-08-25T14:44:01;3.58;;;2.17;;
51883;SDS011;37915;53.254;6.598;2022-08-25T14:46:29;4.88;;;2.40;;
51883;SDS011;37915;53.254;6.598;2022-08-25T14:49:02;6.38;;;2.40;;
51883;SDS011;37915;53.254;6.598;2022-08-25T14:51:31;4.18;;;2.15;;
51883;SDS011;37915;53.254;6.598;2022-08-25T14:54:03;5.65;;;2.33;;
51883;SDS011;37915;53.254;6.598;2022-08-25T14:56:30;3.90;;;2.10;;
51883;SDS011;37915;53.254;6.598;2022-08-25T14:58:56;7.10;;;2.45;;
51883;SDS011;37915;53.254;6.598;2022-08-25T15:01:22;6.13;;;2.70;;
51883;SDS011;37915;53.254;6.598;2022-08-25T15:03:50;7.03;;;2.47;;
51883;SDS011;37915;53.254;6.598;2022-08-25T15:06:19;6.53;;;2.78;;
51883;SDS011;37915;53.254;6.598;2022-08-25T15:08:45;4.95;;;2.67;;
51883;SDS011;37915;53.254;6.598;2022-08-25T15:11:30;4.22;;;2.03;;
51883;SDS011;37915;53.254;6.598;2022-08-25T15:13:55;4.55;;;2.72;;
51883;SDS011;37915;53.254;6.598;2022-08-25T15:16:26;6.28;;;2.72;;
51883;SDS011;37915;53.254;6.598;2022-08-25T15:18:57;4.65;;;2.40;;
51883;SDS011;37915;53.254;6.598;2022-08-25T15:21:23;6.20;;;2.65;;
51883;SDS011;37915;53.254;6.598;2022-08-25T15:23:49;5.57;;;2.53;;
51883;SDS011;37915;53.254;6.598;2022-08-25T15:26:15;5.45;;;2.50;;
51883;SDS011;37915;53.254;6.598;2022-08-25T15:28:46;7.50;;;2.70;;
51883;SDS011;37915;53.254;6.598;2022-08-25T15:31:17;5.53;;;2.78;;
51883;SDS011;37915;53.254;6.598;2022-08-25T15:33:44;4.00;;;2.42;;
51883;SDS011;37915;53.254;6.598;2022-08-25T15:36:11;6.68;;;2.50;;
51883;SDS011;37915;53.254;6.598;2022-08-25T15:38:39;5.43;;;2.55;;
51883;SDS011;37915;53.254;6.598;2022-08-25T15:41:06;6.15;;;2.67;;
51883;SDS011;37915;53.254;6.598;2022-08-25T15:43:33;4.25;;;2.78;;
51883;SDS011;37915;53.254;6.598;2022-08-25T15:45:59;5.82;;;2.72;;
51883;SDS011;37915;53.254;6.598;2022-08-25T15:48:25;6.40;;;2.75;;
51883;SDS011;37915;53.254;6.598;2022-08-25T15:50:55;4.75;;;2.53;;
51883;SDS011;37915;53.254;6.598;2022-08-25T15:53:22;4.47;;;2.53;;
51883;SDS011;37915;53.254;6.598;2022-08-25T15:55:50;4.95;;;2.80;;
51883;SDS011;37915;53.254;6.598;2022-08-25T15:58:16;4.85;;;2.38;;
51883;SDS011;37915;53.254;6.598;2022-08-25T16:00:43;4.28;;;2.38;;
51883;SDS011;37915;53.254;6.598;2022-08-25T16:03:10;4.40;;;2.72;;
51883;SDS011;37915;53.254;6.598;2022-08-25T16:05:36;8.95;;;2.97;;
51883;SDS011;37915;53.254;6.598;2022-08-25T16:08:03;5.82;;;2.83;;
51883;SDS011;37915;53.254;6.598;2022-08-25T16:10:33;4.28;;;2.53;;
51883;SDS011;37915;53.254;6.598;2022-08-25T16:13:00;10.48;;;2.60;;
51883;SDS011;37915;53.254;6.598;2022-08-25T16:15:26;10.10;;;3.35;;
51883;SDS011;37915;53.254;6.598;2022-08-25T16:17:53;4.60;;;2.85;;
51883;SDS011;37915;53.254;6.598;2022-08-25T16:20:19;6.90;;;2.83;;
51883;SDS011;37915;53.254;6.598;2022-08-25T16:22:47;4.45;;;2.50;;
51883;SDS011;37915;53.254;6.598;2022-08-25T16:25:13;4.72;;;2.92;;
51883;SDS011;37915;53.254;6.598;2022-08-25T16:27:39;6.18;;;2.95;;
51883;SDS011;37915;53.254;6.598;2022-08-25T16:30:06;5.82;;;2.95;;
51883;SDS011;37915;53.254;6.598;2022-08-25T16:32:34;5.72;;;2.70;;
51883;SDS011;37915;53.254;6.598;2022-08-25T16:34:59;4.93;;;3.22;;
51883;SDS011;37915;53.254;6.598;2022-08-25T16:37:25;5.85;;;2.70;;
51883;SDS011;37915;53.254;6.598;2022-08-25T16:39:52;5.05;;;3.17;;
51883;SDS011;37915;53.254;6.598;2022-08-25T16:42:19;5.53;;;2.88;;
51883;SDS011;37915;53.254;6.598;2022-08-25T16:44:44;5.72;;;3.13;;
51883;SDS011;37915;53.254;6.598;2022-08-25T16:47:10;6.78;;;3.42;;
51883;SDS011;37915;53.254;6.598;2022-08-25T16:49:38;5.90;;;2.92;;
51883;SDS011;37915;53.254;6.598;2022-08-25T16:52:04;6.43;;;3.47;;
51883;SDS011;37915;53.254;6.598;2022-08-25T16:54:50;5.88;;;3.33;;
51883;SDS011;37915;53.254;6.598;2022-08-25T16:57:35;4.88;;;3.03;;
51883;SDS011;37915;53.254;6.598;2022-08-25T17:00:00;6.70;;;3.40;;